sensor_id;sensor_type;location;lat;lon;timestamp;P1;durP1;ratioP1;P2;durP2;ratioP2
69970;SDS011;57301;50.328;8.542;2024-01-30T00:01:29;46.05;;;22.42;;
69970;SDS011;57301;50.328;8.542;2024-01-30T00:03:55;41.40;;;21.15;;
69970;SDS011;57301;50.328;8.542;2024-01-30T00:06:22;52.25;;;24.92;;
69970;SDS011;57301;50.328;8.542;2024-01-30T00:08:49;57.37;;;24.83;;
69970;SDS011;57301;50.328;8.542;2024-01-30T00:11:16;47.28;;;22.23;;
69970;SDS011;57301;50.328;8.542;2024-01-30T00:13:42;47.95;;;22.83;;
69970;SDS011;57301;50.328;8.542;2024-01-30T00:16:19;44.28;;;20.92;;
69970;SDS011;57301;50.328;8.542;2024-01-30T00:18:47;52.10;;;24.45;;
69970;SDS011;57301;50.328;8.542;2024-01-30T00:21:14;63.83;;;27.17;;
69970;SDS011;57301;50.328;8.542;2024-01-30T00:23:41;48.20;;;21.58;;
69970;SDS011;57301;50.328;8.542;2024-01-30T00:26:07;54.80;;;23.88;;
69970;SDS011;57301;50.328;8.542;2024-01-30T00:28:33;50.42;;;21.38;;
69970;SDS011;57301;50.328;8.542;2024-01-30T00:31:00;51.70;;;24.00;;
69970;SDS011;57301;50.328;8.542;2024-01-30T00:33:27;43.30;;;19.97;;
69970;SDS011;57301;50.328;8.542;2024-01-30T00:35:53;51.38;;;23.27;;
69970;SDS011;57301;50.328;8.542;2024-01-30T00:38:20;55.35;;;24.30;;
69970;SDS011;57301;50.328;8.542;2024-01-30T00:40:46;63.33;;;25.95;;
69970;SDS011;57301;50.328;8.542;2024-01-30T00:43:13;65.85;;;26.65;;
69970;SDS011;57301;50.328;8.542;2024-01-30T00:45:39;67.63;;;27.97;;
69970;SDS011;57301;50.328;8.542;2024-01-30T00:48:06;60.45;;;27.05;;
69970;SDS011;57301;50.328;8.542;2024-01-30T00:50:33;62.13;;;27.23;;
69970;SDS011;57301;50.328;8.542;2024-01-30T00:52:59;59.10;;;25.63;;
69970;SDS011;57301;50.328;8.542;2024-01-30T00:55:26;47.72;;;22.85;;
69970;SDS011;57301;50.328;8.542;2024-01-30T00:57:52;44.73;;;21.90;;
69970;SDS011;57301;50.328;8.542;2024-01-30T01:00:19;44.75;;;20.98;;
69970;SDS011;57301;50.328;8.542;2024-01-30T01:02:47;56.85;;;24.92;;
69970;SDS011;57301;50.328;8.542;2024-01-30T01:05:13;57.22;;;25.67;;
69970;SDS011;57301;50.328;8.542;2024-01-30T01:07:40;62.28;;;26.90;;
69970;SDS011;57301;50.328;8.542;2024-01-30T01:10:08;44.17;;;21.13;;
69970;SDS011;57301;50.328;8.542;2024-01-30T01:12:35;40.88;;;19.60;;
69970;SDS011;57301;50.328;8.542;2024-01-30T01:15:02;38.72;;;19.38;;
69970;SDS011;57301;50.328;8.542;2024-01-30T01:17:29;36.85;;;18.85;;
69970;SDS011;57301;50.328;8.542;2024-01-30T01:19:55;34.28;;;17.75;;
69970;SDS011;57301;50.328;8.542;2024-01-30T01:22:22;33.47;;;17.50;;
69970;SDS011;57301;50.328;8.542;2024-01-30T01:24:49;31.95;;;17.52;;
69970;SDS011;57301;50.328;8.542;2024-01-30T01:27:15;33.40;;;17.83;;
69970;SDS011;57301;50.328;8.542;2024-01-30T01:29:42;29.27;;;16.60;;
69970;SDS011;57301;50.328;8.542;2024-01-30T01:32:09;33.17;;;17.65;;
69970;SDS011;57301;50.328;8.542;2024-01-30T01:34:35;33.63;;;18.97;;
69970;SDS011;57301;50.328;8.542;2024-01-30T01:37:02;32.40;;;17.48;;
69970;SDS011;57301;50.328;8.542;2024-01-30T01:39:29;34.55;;;18.50;;
69970;SDS011;57301;50.328;8.542;2024-01-30T01:41:55;37.20;;;18.13;;
69970;SDS011;57301;50.328;8.542;2024-01-30T01:44:22;34.15;;;16.98;;
69970;SDS011;57301;50.328;8.542;2024-01-30T01:46:48;31.90;;;16.53;;
69970;SDS011;57301;50.328;8.542;2024-01-30T01:49:15;38.00;;;18.73;;
69970;SDS011;57301;50.328;8.542;2024-01-30T01:51:42;31.98;;;17.80;;
69970;SDS011;57301;50.328;8.542;2024-01-30T01:54:11;35.63;;;17.65;;
69970;SDS011;57301;50.328;8.542;2024-01-30T01:56:38;31.55;;;16.35;;
69970;SDS011;57301;50.328;8.542;2024-01-30T01:59:05;32.87;;;16.50;;
69970;SDS011;57301;50.328;8.542;2024-01-30T02:01:36;27.42;;;14.57;;
69970;SDS011;57301;50.328;8.542;2024-01-30T02:04:03;29.52;;;16.55;;
69970;SDS011;57301;50.328;8.542;2024-01-30T02:06:31;30.75;;;16.08;;
69970;SDS011;57301;50.328;8.542;2024-01-30T02:08:58;31.15;;;16.83;;
69970;SDS011;57301;50.328;8.542;2024-01-30T02:11:24;26.97;;;15.53;;
69970;SDS011;57301;50.328;8.542;2024-01-30T02:13:52;29.38;;;15.70;;
69970;SDS011;57301;50.328;8.542;2024-01-30T02:16:18;29.45;;;16.05;;
69970;SDS011;57301;50.328;8.542;2024-01-30T02:18:45;25.30;;;15.15;;
69970;SDS011;57301;50.328;8.542;2024-01-30T02:21:16;24.15;;;14.05;;
69970;SDS011;57301;50.328;8.542;2024-01-30T02:23:44;30.50;;;15.50;;
69970;SDS011;57301;50.328;8.542;2024-01-30T02:26:12;30.55;;;15.40;;
69970;SDS011;57301;50.328;8.542;2024-01-30T02:28:39;32.47;;;17.08;;
69970;SDS011;57301;50.328;8.542;2024-01-30T02:31:05;28.17;;;15.85;;
69970;SDS011;57301;50.328;8.542;2024-01-30T02:33:32;29.70;;;16.42;;
69970;SDS011;57301;50.328;8.542;2024-01-30T02:35:58;30.37;;;16.07;;
69970;SDS011;57301;50.328;8.542;2024-01-30T02:38:25;30.55;;;15.27;;
69970;SDS011;57301;50.328;8.542;2024-01-30T02:40:53;27.77;;;14.48;;
69970;SDS011;57301;50.328;8.542;2024-01-30T02:43:19;32.65;;;15.75;;
69970;SDS011;57301;50.328;8.542;2024-01-30T02:45:46;64.60;;;21.48;;
69970;SDS011;57301;50.328;8.542;2024-01-30T02:48:12;55.87;;;18.83;;
69970;SDS011;57301;50.328;8.542;2024-01-30T02:50:39;43.42;;;17.27;;
69970;SDS011;57301;50.328;8.542;2024-01-30T02:53:06;27.08;;;13.57;;
69970;SDS011;57301;50.328;8.542;2024-01-30T02:55:32;26.02;;;13.63;;
69970;SDS011;57301;50.328;8.542;2024-01-30T02:57:59;23.52;;;12.48;;
69970;SDS011;57301;50.328;8.542;2024-01-30T03:00:26;22.97;;;12.63;;
69970;SDS011;57301;50.328;8.542;2024-01-30T03:02:52;27.45;;;13.50;;
69970;SDS011;57301;50.328;8.542;2024-01-30T03:05:19;26.83;;;12.82;;
69970;SDS011;57301;50.328;8.542;2024-01-30T03:07:45;79.45;;;23.13;;
69970;SDS011;57301;50.328;8.542;2024-01-30T03:10:12;38.13;;;15.77;;
69970;SDS011;57301;50.328;8.542;2024-01-30T03:12:39;34.23;;;14.43;;
69970;SDS011;57301;50.328;8.542;2024-01-30T03:15:05;32.95;;;13.40;;
69970;SDS011;57301;50.328;8.542;2024-01-30T03:17:32;25.73;;;13.05;;
69970;SDS011;57301;50.328;8.542;2024-01-30T03:19:58;23.80;;;12.68;;
69970;SDS011;57301;50.328;8.542;2024-01-30T03:22:25;22.25;;;12.02;;
69970;SDS011;57301;50.328;8.542;2024-01-30T03:24:52;23.33;;;11.90;;
69970;SDS011;57301;50.328;8.542;2024-01-30T03:27:18;20.73;;;11.90;;
69970;SDS011;57301;50.328;8.542;2024-01-30T03:29:45;24.25;;;12.85;;
69970;SDS011;57301;50.328;8.542;2024-01-30T03:32:11;24.45;;;12.07;;
69970;SDS011;57301;50.328;8.542;2024-01-30T03:34:38;44.95;;;18.35;;
69970;SDS011;57301;50.328;8.542;2024-01-30T03:37:05;48.47;;;19.57;;
69970;SDS011;57301;50.328;8.542;2024-01-30T03:39:31;39.03;;;16.85;;
69970;SDS011;57301;50.328;8.542;2024-01-30T03:41:58;30.02;;;14.07;;
69970;SDS011;57301;50.328;8.542;2024-01-30T03:44:24;27.17;;;12.68;;
69970;SDS011;57301;50.328;8.542;2024-01-30T03:46:50;23.95;;;12.93;;
69970;SDS011;57301;50.328;8.542;2024-01-30T03:49:17;23.33;;;12.10;;
69970;SDS011;57301;50.328;8.542;2024-01-30T03:51:44;19.80;;;11.48;;
69970;SDS011;57301;50.328;8.542;2024-01-30T03:54:11;21.35;;;11.63;;
69970;SDS011;57301;50.328;8.542;2024-01-30T03:56:37;24.67;;;11.88;;
69970;SDS011;57301;50.328;8.542;2024-01-30T03:59:04;21.55;;;11.75;;
69970;SDS011;57301;50.328;8.542;2024-01-30T04:01:30;25.03;;;13.00;;
69970;SDS011;57301;50.328;8.542;2024-01-30T04:03:57;20.90;;;12.07;;
69970;SDS011;57301;50.328;8.542;2024-01-30T04:06:23;20.13;;;11.50;;
69970;SDS011;57301;50.328;8.542;2024-01-30T04:08:50;22.05;;;12.02;;
69970;SDS011;57301;50.328;8.542;2024-01-30T04:11:18;23.00;;;11.95;;
69970;SDS011;57301;50.328;8.542;2024-01-30T04:13:45;24.70;;;13.10;;
69970;SDS011;57301;50.328;8.542;2024-01-30T04:16:20;22.17;;;12.65;;
69970;SDS011;57301;50.328;8.542;2024-01-30T04:18:48;20.20;;;11.00;;
69970;SDS011;57301;50.328;8.542;2024-01-30T04:21:15;22.23;;;11.60;;
69970;SDS011;57301;50.328;8.542;2024-01-30T04:23:42;20.65;;;11.32;;
69970;SDS011;57301;50.328;8.542;2024-01-30T04:26:09;22.37;;;11.43;;
69970;SDS011;57301;50.328;8.542;2024-01-30T04:28:35;19.98;;;11.50;;
69970;SDS011;57301;50.328;8.542;2024-01-30T04:31:02;22.60;;;12.07;;
69970;SDS011;57301;50.328;8.542;2024-01-30T04:33:28;20.70;;;11.95;;
69970;SDS011;57301;50.328;8.542;2024-01-30T04:35:55;18.63;;;11.00;;
69970;SDS011;57301;50.328;8.542;2024-01-30T04:38:21;20.73;;;12.10;;
69970;SDS011;57301;50.328;8.542;2024-01-30T04:40:48;21.75;;;11.68;;
69970;SDS011;57301;50.328;8.542;2024-01-30T04:43:14;23.02;;;11.55;;
69970;SDS011;57301;50.328;8.542;2024-01-30T04:45:42;20.02;;;11.77;;
69970;SDS011;57301;50.328;8.542;2024-01-30T04:48:08;21.98;;;11.65;;
69970;SDS011;57301;50.328;8.542;2024-01-30T04:50:35;18.07;;;11.27;;
69970;SDS011;57301;50.328;8.542;2024-01-30T04:53:02;19.88;;;11.43;;
69970;SDS011;57301;50.328;8.542;2024-01-30T04:55:29;22.70;;;11.60;;
69970;SDS011;57301;50.328;8.542;2024-01-30T04:57:55;19.80;;;11.35;;
69970;SDS011;57301;50.328;8.542;2024-01-30T05:00:22;17.92;;;10.65;;
69970;SDS011;57301;50.328;8.542;2024-01-30T05:02:48;20.20;;;10.63;;
69970;SDS011;57301;50.328;8.542;2024-01-30T05:05:15;21.30;;;11.50;;
69970;SDS011;57301;50.328;8.542;2024-01-30T05:07:42;22.17;;;12.00;;
69970;SDS011;57301;50.328;8.542;2024-01-30T05:10:09;20.77;;;11.35;;
69970;SDS011;57301;50.328;8.542;2024-01-30T05:12:35;19.98;;;11.40;;
69970;SDS011;57301;50.328;8.542;2024-01-30T05:15:02;26.07;;;12.33;;
69970;SDS011;57301;50.328;8.542;2024-01-30T05:17:29;22.48;;;10.95;;
69970;SDS011;57301;50.328;8.542;2024-01-30T05:19:56;18.30;;;10.80;;
69970;SDS011;57301;50.328;8.542;2024-01-30T05:22:22;22.33;;;11.95;;
69970;SDS011;57301;50.328;8.542;2024-01-30T05:24:49;21.08;;;11.10;;
69970;SDS011;57301;50.328;8.542;2024-01-30T05:27:15;20.57;;;11.30;;
69970;SDS011;57301;50.328;8.542;2024-01-30T05:29:42;21.80;;;11.00;;
69970;SDS011;57301;50.328;8.542;2024-01-30T05:32:09;20.80;;;10.90;;
69970;SDS011;57301;50.328;8.542;2024-01-30T05:34:36;19.88;;;10.45;;
69970;SDS011;57301;50.328;8.542;2024-01-30T05:37:03;17.52;;;10.43;;
69970;SDS011;57301;50.328;8.542;2024-01-30T05:39:30;16.63;;;10.00;;
69970;SDS011;57301;50.328;8.542;2024-01-30T05:41:59;21.88;;;11.93;;
69970;SDS011;57301;50.328;8.542;2024-01-30T05:44:25;18.23;;;10.88;;
69970;SDS011;57301;50.328;8.542;2024-01-30T05:46:52;17.38;;;10.15;;
69970;SDS011;57301;50.328;8.542;2024-01-30T05:49:18;20.08;;;11.00;;
69970;SDS011;57301;50.328;8.542;2024-01-30T05:51:45;22.57;;;11.50;;
69970;SDS011;57301;50.328;8.542;2024-01-30T05:54:12;20.83;;;10.77;;
69970;SDS011;57301;50.328;8.542;2024-01-30T05:56:42;21.73;;;11.82;;
69970;SDS011;57301;50.328;8.542;2024-01-30T05:59:09;19.13;;;10.50;;
69970;SDS011;57301;50.328;8.542;2024-01-30T06:01:35;19.23;;;10.82;;
69970;SDS011;57301;50.328;8.542;2024-01-30T06:04:02;18.80;;;10.07;;
69970;SDS011;57301;50.328;8.542;2024-01-30T06:06:29;20.73;;;10.80;;
69970;SDS011;57301;50.328;8.542;2024-01-30T06:08:55;20.08;;;11.48;;
69970;SDS011;57301;50.328;8.542;2024-01-30T06:11:22;18.48;;;10.88;;
69970;SDS011;57301;50.328;8.542;2024-01-30T06:13:48;17.40;;;10.43;;
69970;SDS011;57301;50.328;8.542;2024-01-30T06:16:15;17.63;;;10.43;;
69970;SDS011;57301;50.328;8.542;2024-01-30T06:18:42;21.60;;;10.88;;
69970;SDS011;57301;50.328;8.542;2024-01-30T06:21:08;18.80;;;11.18;;
69970;SDS011;57301;50.328;8.542;2024-01-30T06:23:38;21.98;;;12.45;;
69970;SDS011;57301;50.328;8.542;2024-01-30T06:26:06;19.45;;;11.35;;
69970;SDS011;57301;50.328;8.542;2024-01-30T06:28:33;18.50;;;10.73;;
69970;SDS011;57301;50.328;8.542;2024-01-30T06:31:02;21.77;;;11.20;;
69970;SDS011;57301;50.328;8.542;2024-01-30T06:33:29;20.58;;;11.63;;
69970;SDS011;57301;50.328;8.542;2024-01-30T06:35:56;21.48;;;12.10;;
69970;SDS011;57301;50.328;8.542;2024-01-30T06:38:22;20.15;;;11.77;;
69970;SDS011;57301;50.328;8.542;2024-01-30T06:40:49;23.07;;;11.97;;
69970;SDS011;57301;50.328;8.542;2024-01-30T06:43:18;27.67;;;14.05;;
69970;SDS011;57301;50.328;8.542;2024-01-30T06:45:45;26.30;;;13.30;;
69970;SDS011;57301;50.328;8.542;2024-01-30T06:48:12;24.65;;;12.95;;
69970;SDS011;57301;50.328;8.542;2024-01-30T06:50:39;20.83;;;12.48;;
69970;SDS011;57301;50.328;8.542;2024-01-30T06:53:05;22.73;;;12.60;;
69970;SDS011;57301;50.328;8.542;2024-01-30T06:55:32;24.00;;;12.10;;
69970;SDS011;57301;50.328;8.542;2024-01-30T06:57:58;19.77;;;11.95;;
69970;SDS011;57301;50.328;8.542;2024-01-30T07:00:25;22.25;;;11.43;;
69970;SDS011;57301;50.328;8.542;2024-01-30T07:02:51;21.58;;;12.23;;
69970;SDS011;57301;50.328;8.542;2024-01-30T07:05:18;21.80;;;11.40;;
69970;SDS011;57301;50.328;8.542;2024-01-30T07:07:47;22.17;;;11.50;;
69970;SDS011;57301;50.328;8.542;2024-01-30T07:10:14;21.20;;;11.50;;
69970;SDS011;57301;50.328;8.542;2024-01-30T07:12:43;25.45;;;12.23;;
69970;SDS011;57301;50.328;8.542;2024-01-30T07:15:09;24.80;;;12.88;;
69970;SDS011;57301;50.328;8.542;2024-01-30T07:17:36;22.87;;;12.10;;
69970;SDS011;57301;50.328;8.542;2024-01-30T07:20:03;21.88;;;11.52;;
69970;SDS011;57301;50.328;8.542;2024-01-30T07:22:34;24.15;;;12.80;;
69970;SDS011;57301;50.328;8.542;2024-01-30T07:25:01;21.67;;;11.52;;
69970;SDS011;57301;50.328;8.542;2024-01-30T07:27:27;18.85;;;10.82;;
69970;SDS011;57301;50.328;8.542;2024-01-30T07:29:54;20.93;;;12.17;;
69970;SDS011;57301;50.328;8.542;2024-01-30T07:32:20;22.98;;;12.38;;
69970;SDS011;57301;50.328;8.542;2024-01-30T07:34:47;25.05;;;11.88;;
69970;SDS011;57301;50.328;8.542;2024-01-30T07:37:32;23.33;;;12.18;;
69970;SDS011;57301;50.328;8.542;2024-01-30T07:39:58;25.15;;;12.52;;
69970;SDS011;57301;50.328;8.542;2024-01-30T07:42:25;25.80;;;13.93;;
69970;SDS011;57301;50.328;8.542;2024-01-30T07:44:51;24.17;;;13.15;;
69970;SDS011;57301;50.328;8.542;2024-01-30T07:47:18;24.30;;;13.02;;
69970;SDS011;57301;50.328;8.542;2024-01-30T07:49:45;23.52;;;13.00;;
69970;SDS011;57301;50.328;8.542;2024-01-30T07:52:12;19.10;;;11.90;;
69970;SDS011;57301;50.328;8.542;2024-01-30T07:54:38;23.57;;;12.60;;
69970;SDS011;57301;50.328;8.542;2024-01-30T07:57:05;24.00;;;13.02;;
69970;SDS011;57301;50.328;8.542;2024-01-30T07:59:31;24.13;;;13.45;;
69970;SDS011;57301;50.328;8.542;2024-01-30T08:01:58;19.30;;;11.35;;
69970;SDS011;57301;50.328;8.542;2024-01-30T08:04:24;21.08;;;11.43;;
69970;SDS011;57301;50.328;8.542;2024-01-30T08:06:51;22.07;;;12.00;;
69970;SDS011;57301;50.328;8.542;2024-01-30T08:09:18;19.88;;;11.13;;
69970;SDS011;57301;50.328;8.542;2024-01-30T08:11:44;22.02;;;12.00;;
69970;SDS011;57301;50.328;8.542;2024-01-30T08:14:11;21.42;;;11.05;;
69970;SDS011;57301;50.328;8.542;2024-01-30T08:16:39;22.27;;;11.40;;
69970;SDS011;57301;50.328;8.542;2024-01-30T08:19:06;20.80;;;12.00;;
69970;SDS011;57301;50.328;8.542;2024-01-30T08:21:33;20.15;;;11.77;;
69970;SDS011;57301;50.328;8.542;2024-01-30T08:24:05;24.88;;;14.25;;
69970;SDS011;57301;50.328;8.542;2024-01-30T08:26:32;21.63;;;12.48;;
69970;SDS011;57301;50.328;8.542;2024-01-30T08:29:00;23.67;;;13.07;;
69970;SDS011;57301;50.328;8.542;2024-01-30T08:31:27;21.43;;;12.50;;
69970;SDS011;57301;50.328;8.542;2024-01-30T08:33:54;21.42;;;12.50;;
69970;SDS011;57301;50.328;8.542;2024-01-30T08:36:21;28.00;;;15.23;;
69970;SDS011;57301;50.328;8.542;2024-01-30T08:38:47;22.02;;;13.70;;
69970;SDS011;57301;50.328;8.542;2024-01-30T08:41:14;24.58;;;14.25;;
69970;SDS011;57301;50.328;8.542;2024-01-30T08:43:40;23.33;;;13.00;;
69970;SDS011;57301;50.328;8.542;2024-01-30T08:46:07;23.48;;;13.18;;
69970;SDS011;57301;50.328;8.542;2024-01-30T08:48:35;24.88;;;13.52;;
69970;SDS011;57301;50.328;8.542;2024-01-30T08:51:02;22.10;;;13.45;;
69970;SDS011;57301;50.328;8.542;2024-01-30T08:53:29;23.35;;;14.35;;
69970;SDS011;57301;50.328;8.542;2024-01-30T08:55:55;26.33;;;16.13;;
69970;SDS011;57301;50.328;8.542;2024-01-30T08:58:25;25.65;;;14.80;;
69970;SDS011;57301;50.328;8.542;2024-01-30T09:00:52;24.60;;;14.43;;
69970;SDS011;57301;50.328;8.542;2024-01-30T09:03:19;21.65;;;13.10;;
69970;SDS011;57301;50.328;8.542;2024-01-30T09:05:45;24.23;;;14.25;;
69970;SDS011;57301;50.328;8.542;2024-01-30T09:08:12;23.03;;;14.00;;
69970;SDS011;57301;50.328;8.542;2024-01-30T09:10:39;25.40;;;14.45;;
69970;SDS011;57301;50.328;8.542;2024-01-30T09:13:05;24.38;;;14.27;;
69970;SDS011;57301;50.328;8.542;2024-01-30T09:15:32;23.17;;;13.70;;
69970;SDS011;57301;50.328;8.542;2024-01-30T09:17:58;23.80;;;13.70;;
69970;SDS011;57301;50.328;8.542;2024-01-30T09:20:25;23.47;;;14.20;;
69970;SDS011;57301;50.328;8.542;2024-01-30T09:22:52;24.25;;;15.13;;
69970;SDS011;57301;50.328;8.542;2024-01-30T09:25:18;26.63;;;14.02;;
69970;SDS011;57301;50.328;8.542;2024-01-30T09:27:45;27.42;;;14.48;;
69970;SDS011;57301;50.328;8.542;2024-01-30T09:30:13;23.38;;;13.85;;
69970;SDS011;57301;50.328;8.542;2024-01-30T09:32:40;24.87;;;14.40;;
69970;SDS011;57301;50.328;8.542;2024-01-30T09:35:07;22.13;;;14.13;;
69970;SDS011;57301;50.328;8.542;2024-01-30T09:37:34;21.60;;;13.45;;
69970;SDS011;57301;50.328;8.542;2024-01-30T09:40:01;25.27;;;14.63;;
69970;SDS011;57301;50.328;8.542;2024-01-30T09:42:28;29.20;;;15.43;;
69970;SDS011;57301;50.328;8.542;2024-01-30T09:45:03;27.43;;;15.77;;
69970;SDS011;57301;50.328;8.542;2024-01-30T09:47:32;27.38;;;15.27;;
69970;SDS011;57301;50.328;8.542;2024-01-30T09:50:04;26.02;;;16.05;;
69970;SDS011;57301;50.328;8.542;2024-01-30T09:52:32;27.98;;;16.20;;
69970;SDS011;57301;50.328;8.542;2024-01-30T09:54:59;27.42;;;15.43;;
69970;SDS011;57301;50.328;8.542;2024-01-30T09:57:27;25.83;;;15.10;;
69970;SDS011;57301;50.328;8.542;2024-01-30T09:59:54;25.25;;;15.63;;
69970;SDS011;57301;50.328;8.542;2024-01-30T10:02:21;26.80;;;15.50;;
69970;SDS011;57301;50.328;8.542;2024-01-30T10:04:48;28.25;;;16.40;;
69970;SDS011;57301;50.328;8.542;2024-01-30T10:07:16;23.85;;;15.25;;
69970;SDS011;57301;50.328;8.542;2024-01-30T10:09:44;25.57;;;15.83;;
69970;SDS011;57301;50.328;8.542;2024-01-30T10:12:11;23.63;;;14.32;;
69970;SDS011;57301;50.328;8.542;2024-01-30T10:14:38;23.27;;;14.48;;
69970;SDS011;57301;50.328;8.542;2024-01-30T10:17:07;25.45;;;14.98;;
69970;SDS011;57301;50.328;8.542;2024-01-30T10:19:46;24.75;;;15.38;;
69970;SDS011;57301;50.328;8.542;2024-01-30T10:22:13;26.33;;;14.30;;
69970;SDS011;57301;50.328;8.542;2024-01-30T10:24:40;24.20;;;14.48;;
69970;SDS011;57301;50.328;8.542;2024-01-30T10:27:07;26.63;;;15.27;;
69970;SDS011;57301;50.328;8.542;2024-01-30T10:29:33;27.40;;;15.30;;
69970;SDS011;57301;50.328;8.542;2024-01-30T10:32:03;28.80;;;16.60;;
69970;SDS011;57301;50.328;8.542;2024-01-30T10:34:32;30.13;;;16.03;;
69970;SDS011;57301;50.328;8.542;2024-01-30T10:37:05;25.38;;;15.65;;
69970;SDS011;57301;50.328;8.542;2024-01-30T10:39:34;25.30;;;16.17;;
69970;SDS011;57301;50.328;8.542;2024-01-30T10:42:04;24.48;;;15.50;;
69970;SDS011;57301;50.328;8.542;2024-01-30T10:44:34;24.90;;;15.32;;
69970;SDS011;57301;50.328;8.542;2024-01-30T10:47:06;24.10;;;15.80;;
69970;SDS011;57301;50.328;8.542;2024-01-30T10:49:39;26.38;;;16.38;;
69970;SDS011;57301;50.328;8.542;2024-01-30T10:52:09;27.75;;;15.25;;
69970;SDS011;57301;50.328;8.542;2024-01-30T10:54:36;25.55;;;14.80;;
69970;SDS011;57301;50.328;8.542;2024-01-30T10:57:04;24.77;;;15.05;;
69970;SDS011;57301;50.328;8.542;2024-01-30T10:59:31;23.23;;;14.80;;
69970;SDS011;57301;50.328;8.542;2024-01-30T11:01:59;29.17;;;16.23;;
69970;SDS011;57301;50.328;8.542;2024-01-30T11:04:27;25.70;;;16.10;;
69970;SDS011;57301;50.328;8.542;2024-01-30T11:06:53;24.48;;;14.52;;
69970;SDS011;57301;50.328;8.542;2024-01-30T11:09:20;24.05;;;15.13;;
69970;SDS011;57301;50.328;8.542;2024-01-30T11:11:57;28.10;;;16.17;;
69970;SDS011;57301;50.328;8.542;2024-01-30T11:14:29;23.65;;;14.57;;
69970;SDS011;57301;50.328;8.542;2024-01-30T11:17:05;26.65;;;16.75;;
69970;SDS011;57301;50.328;8.542;2024-01-30T11:19:32;27.67;;;17.42;;
69970;SDS011;57301;50.328;8.542;2024-01-30T11:22:00;26.77;;;16.02;;
69970;SDS011;57301;50.328;8.542;2024-01-30T11:24:28;26.67;;;16.03;;
69970;SDS011;57301;50.328;8.542;2024-01-30T11:27:03;25.30;;;15.48;;
69970;SDS011;57301;50.328;8.542;2024-01-30T11:29:36;25.80;;;15.70;;
69970;SDS011;57301;50.328;8.542;2024-01-30T11:32:06;24.83;;;15.25;;
69970;SDS011;57301;50.328;8.542;2024-01-30T11:34:33;22.50;;;15.00;;
69970;SDS011;57301;50.328;8.542;2024-01-30T11:37:03;24.23;;;14.93;;
69970;SDS011;57301;50.328;8.542;2024-01-30T11:39:33;23.02;;;14.98;;
69970;SDS011;57301;50.328;8.542;2024-01-30T11:42:02;24.08;;;15.82;;
69970;SDS011;57301;50.328;8.542;2024-01-30T11:44:31;26.05;;;15.43;;
69970;SDS011;57301;50.328;8.542;2024-01-30T11:46:58;22.35;;;14.88;;
69970;SDS011;57301;50.328;8.542;2024-01-30T11:49:24;22.60;;;14.87;;
69970;SDS011;57301;50.328;8.542;2024-01-30T11:51:51;24.17;;;15.38;;
69970;SDS011;57301;50.328;8.542;2024-01-30T11:54:19;23.52;;;15.35;;
69970;SDS011;57301;50.328;8.542;2024-01-30T11:56:46;21.33;;;14.10;;
69970;SDS011;57301;50.328;8.542;2024-01-30T11:59:13;30.70;;;17.92;;
69970;SDS011;57301;50.328;8.542;2024-01-30T12:01:40;21.50;;;13.77;;
69970;SDS011;57301;50.328;8.542;2024-01-30T12:04:07;19.95;;;12.82;;
69970;SDS011;57301;50.328;8.542;2024-01-30T12:06:37;16.88;;;12.18;;
69970;SDS011;57301;50.328;8.542;2024-01-30T12:09:05;19.02;;;12.52;;
69970;SDS011;57301;50.328;8.542;2024-01-30T12:11:32;18.17;;;12.27;;
69970;SDS011;57301;50.328;8.542;2024-01-30T12:13:59;20.30;;;12.20;;
69970;SDS011;57301;50.328;8.542;2024-01-30T12:16:26;18.83;;;12.48;;
69970;SDS011;57301;50.328;8.542;2024-01-30T12:18:59;20.48;;;13.43;;
69970;SDS011;57301;50.328;8.542;2024-01-30T12:21:28;17.48;;;11.82;;
69970;SDS011;57301;50.328;8.542;2024-01-30T12:23:56;16.85;;;11.30;;
69970;SDS011;57301;50.328;8.542;2024-01-30T12:26:23;18.37;;;11.30;;
69970;SDS011;57301;50.328;8.542;2024-01-30T12:28:55;17.45;;;11.38;;
69970;SDS011;57301;50.328;8.542;2024-01-30T12:31:28;15.20;;;10.65;;
69970;SDS011;57301;50.328;8.542;2024-01-30T12:33:55;16.55;;;11.20;;
69970;SDS011;57301;50.328;8.542;2024-01-30T12:36:24;16.98;;;11.10;;
69970;SDS011;57301;50.328;8.542;2024-01-30T12:38:51;16.33;;;10.57;;
69970;SDS011;57301;50.328;8.542;2024-01-30T12:41:19;17.38;;;10.88;;
69970;SDS011;57301;50.328;8.542;2024-01-30T12:43:46;16.80;;;11.48;;
69970;SDS011;57301;50.328;8.542;2024-01-30T12:46:16;16.15;;;11.15;;
69970;SDS011;57301;50.328;8.542;2024-01-30T12:48:43;18.58;;;11.63;;
69970;SDS011;57301;50.328;8.542;2024-01-30T12:51:10;17.93;;;11.40;;
69970;SDS011;57301;50.328;8.542;2024-01-30T12:53:36;15.20;;;10.70;;
69970;SDS011;57301;50.328;8.542;2024-01-30T12:56:03;15.82;;;10.77;;
69970;SDS011;57301;50.328;8.542;2024-01-30T12:58:30;17.23;;;9.85;;
69970;SDS011;57301;50.328;8.542;2024-01-30T13:00:56;16.20;;;9.35;;
69970;SDS011;57301;50.328;8.542;2024-01-30T13:03:24;17.47;;;10.80;;
69970;SDS011;57301;50.328;8.542;2024-01-30T13:05:51;15.07;;;9.80;;
69970;SDS011;57301;50.328;8.542;2024-01-30T13:08:17;14.32;;;10.02;;
69970;SDS011;57301;50.328;8.542;2024-01-30T13:10:44;14.50;;;9.00;;
69970;SDS011;57301;50.328;8.542;2024-01-30T13:13:15;13.05;;;7.80;;
69970;SDS011;57301;50.328;8.542;2024-01-30T13:15:46;12.53;;;7.53;;
69970;SDS011;57301;50.328;8.542;2024-01-30T13:18:14;13.43;;;7.57;;
69970;SDS011;57301;50.328;8.542;2024-01-30T13:20:41;11.07;;;7.47;;
69970;SDS011;57301;50.328;8.542;2024-01-30T13:23:07;12.43;;;7.60;;
69970;SDS011;57301;50.328;8.542;2024-01-30T13:25:34;14.30;;;7.43;;
69970;SDS011;57301;50.328;8.542;2024-01-30T13:28:01;12.03;;;7.33;;
69970;SDS011;57301;50.328;8.542;2024-01-30T13:30:27;12.40;;;8.68;;
69970;SDS011;57301;50.328;8.542;2024-01-30T13:32:54;14.38;;;8.77;;
69970;SDS011;57301;50.328;8.542;2024-01-30T13:35:20;14.18;;;8.52;;
69970;SDS011;57301;50.328;8.542;2024-01-30T13:37:47;16.05;;;9.35;;
69970;SDS011;57301;50.328;8.542;2024-01-30T13:40:14;15.47;;;9.30;;
69970;SDS011;57301;50.328;8.542;2024-01-30T13:42:42;12.48;;;8.57;;
69970;SDS011;57301;50.328;8.542;2024-01-30T13:45:09;13.02;;;9.00;;
69970;SDS011;57301;50.328;8.542;2024-01-30T13:47:37;14.05;;;8.43;;
69970;SDS011;57301;50.328;8.542;2024-01-30T13:50:04;11.80;;;8.75;;
69970;SDS011;57301;50.328;8.542;2024-01-30T13:52:32;15.13;;;9.00;;
69970;SDS011;57301;50.328;8.542;2024-01-30T13:55:09;15.25;;;9.48;;
69970;SDS011;57301;50.328;8.542;2024-01-30T13:57:36;15.82;;;11.80;;
69970;SDS011;57301;50.328;8.542;2024-01-30T14:00:03;17.50;;;11.45;;
69970;SDS011;57301;50.328;8.542;2024-01-30T14:02:33;19.55;;;12.07;;
69970;SDS011;57301;50.328;8.542;2024-01-30T14:05:00;18.20;;;11.93;;
69970;SDS011;57301;50.328;8.542;2024-01-30T14:07:27;18.63;;;12.77;;
69970;SDS011;57301;50.328;8.542;2024-01-30T14:09:54;21.38;;;13.77;;
69970;SDS011;57301;50.328;8.542;2024-01-30T14:12:20;22.17;;;13.38;;
69970;SDS011;57301;50.328;8.542;2024-01-30T14:14:47;22.52;;;13.20;;
69970;SDS011;57301;50.328;8.542;2024-01-30T14:17:13;22.93;;;14.07;;
69970;SDS011;57301;50.328;8.542;2024-01-30T14:19:40;19.08;;;13.88;;
69970;SDS011;57301;50.328;8.542;2024-01-30T14:22:07;21.20;;;13.75;;
69970;SDS011;57301;50.328;8.542;2024-01-30T14:24:34;19.80;;;13.10;;